sensor_id;sensor_type;location;lat;lon;timestamp;P1;durP1;ratioP1;P2;durP2;ratioP2
19705;SDS011;10003;52.506;4.700;2022-11-15T00:01:14;53.83;;;27.47;;
19705;SDS011;10003;52.506;4.700;2022-11-15T00:03:44;46.23;;;25.73;;
19705;SDS011;10003;52.506;4.700;2022-11-15T00:06:12;41.60;;;19.23;;
19705;SDS011;10003;52.506;4.700;2022-11-15T00:08:41;55.47;;;27.97;;
19705;SDS011;10003;52.506;4.700;2022-11-15T00:11:10;34.70;;;18.97;;
19705;SDS011;10003;52.506;4.700;2022-11-15T00:13:39;28.63;;;16.03;;
19705;SDS011;10003;52.506;4.700;2022-11-15T00:16:09;7.40;;;6.17;;
19705;SDS011;10003;52.506;4.700;2022-11-15T00:18:38;61.13;;;26.07;;
19705;SDS011;10003;52.506;4.700;2022-11-15T00:21:11;64.57;;;26.80;;
19705;SDS011;10003;52.506;4.700;2022-11-15T00:23:40;102.13;;;41.63;;
19705;SDS011;10003;52.506;4.700;2022-11-15T00:26:10;118.27;;;46.30;;
19705;SDS011;10003;52.506;4.700;2022-11-15T00:28:39;77.17;;;30.07;;
19705;SDS011;10003;52.506;4.700;2022-11-15T00:31:09;113.73;;;47.67;;
19705;SDS011;10003;52.506;4.700;2022-11-15T00:33:38;118.87;;;46.17;;
19705;SDS011;10003;52.506;4.700;2022-11-15T00:36:07;172.90;;;58.03;;
19705;SDS011;10003;52.506;4.700;2022-11-15T00:38:38;93.87;;;32.07;;
19705;SDS011;10003;52.506;4.700;2022-11-15T00:41:07;115.30;;;40.10;;
19705;SDS011;10003;52.506;4.700;2022-11-15T00:43:35;208.33;;;70.33;;
19705;SDS011;10003;52.506;4.700;2022-11-15T00:46:06;188.83;;;58.47;;
19705;SDS011;10003;52.506;4.700;2022-11-15T00:48:37;159.47;;;57.13;;
19705;SDS011;10003;52.506;4.700;2022-11-15T00:51:05;146.83;;;40.80;;
19705;SDS011;10003;52.506;4.700;2022-11-15T00:53:34;208.47;;;67.10;;
19705;SDS011;10003;52.506;4.700;2022-11-15T00:56:02;103.10;;;37.13;;
19705;SDS011;10003;52.506;4.700;2022-11-15T00:58:30;183.70;;;55.90;;
19705;SDS011;10003;52.506;4.700;2022-11-15T01:01:05;192.27;;;64.57;;
19705;SDS011;10003;52.506;4.700;2022-11-15T01:03:33;163.97;;;54.60;;
19705;SDS011;10003;52.506;4.700;2022-11-15T01:06:03;186.87;;;65.63;;
19705;SDS011;10003;52.506;4.700;2022-11-15T01:08:32;182.77;;;61.67;;
19705;SDS011;10003;52.506;4.700;2022-11-15T01:11:00;221.27;;;73.67;;
19705;SDS011;10003;52.506;4.700;2022-11-15T01:13:29;203.40;;;70.23;;
19705;SDS011;10003;52.506;4.700;2022-11-15T01:15:59;198.67;;;74.53;;
19705;SDS011;10003;52.506;4.700;2022-11-15T01:18:27;232.47;;;85.87;;
19705;SDS011;10003;52.506;4.700;2022-11-15T01:20:56;227.03;;;83.40;;
19705;SDS011;10003;52.506;4.700;2022-11-15T01:23:25;235.73;;;69.70;;
19705;SDS011;10003;52.506;4.700;2022-11-15T01:25:58;175.40;;;52.33;;
19705;SDS011;10003;52.506;4.700;2022-11-15T01:28:29;234.43;;;71.50;;
19705;SDS011;10003;52.506;4.700;2022-11-15T01:30:57;249.43;;;68.30;;
19705;SDS011;10003;52.506;4.700;2022-11-15T01:33:26;118.10;;;39.60;;
19705;SDS011;10003;52.506;4.700;2022-11-15T01:35:55;228.97;;;71.33;;
19705;SDS011;10003;52.506;4.700;2022-11-15T01:38:25;139.10;;;36.93;;
19705;SDS011;10003;52.506;4.700;2022-11-15T01:40:54;115.07;;;39.60;;
19705;SDS011;10003;52.506;4.700;2022-11-15T01:43:23;98.20;;;31.50;;
19705;SDS011;10003;52.506;4.700;2022-11-15T01:45:52;213.60;;;76.07;;
19705;SDS011;10003;52.506;4.700;2022-11-15T01:48:31;133.40;;;46.40;;
19705;SDS011;10003;52.506;4.700;2022-11-15T01:51:00;203.73;;;61.87;;
19705;SDS011;10003;52.506;4.700;2022-11-15T01:53:31;146.97;;;47.37;;
19705;SDS011;10003;52.506;4.700;2022-11-15T01:56:01;82.53;;;28.67;;
19705;SDS011;10003;52.506;4.700;2022-11-15T01:58:30;114.50;;;39.93;;
19705;SDS011;10003;52.506;4.700;2022-11-15T02:00:59;121.40;;;42.67;;
19705;SDS011;10003;52.506;4.700;2022-11-15T02:03:29;145.23;;;51.97;;
19705;SDS011;10003;52.506;4.700;2022-11-15T02:06:01;190.70;;;69.13;;
19705;SDS011;10003;52.506;4.700;2022-11-15T02:08:31;98.80;;;38.13;;
19705;SDS011;10003;52.506;4.700;2022-11-15T02:10:59;102.87;;;35.53;;
19705;SDS011;10003;52.506;4.700;2022-11-15T02:13:28;154.77;;;60.77;;
19705;SDS011;10003;52.506;4.700;2022-11-15T02:15:58;182.10;;;64.67;;
19705;SDS011;10003;52.506;4.700;2022-11-15T02:18:30;163.97;;;58.83;;
19705;SDS011;10003;52.506;4.700;2022-11-15T02:21:03;123.27;;;41.03;;
19705;SDS011;10003;52.506;4.700;2022-11-15T02:29:15;160.83;;;52.83;;
19705;SDS011;10003;52.506;4.700;2022-11-15T02:31:48;226.57;;;74.53;;
19705;SDS011;10003;52.506;4.700;2022-11-15T02:34:20;181.70;;;61.27;;
19705;SDS011;10003;52.506;4.700;2022-11-15T02:36:54;212.83;;;68.33;;
19705;SDS011;10003;52.506;4.700;2022-11-15T02:39:27;74.97;;;24.13;;
19705;SDS011;10003;52.506;4.700;2022-11-15T02:41:57;137.97;;;44.60;;
19705;SDS011;10003;52.506;4.700;2022-11-15T02:44:30;76.80;;;28.43;;
19705;SDS011;10003;52.506;4.700;2022-11-15T02:47:01;250.57;;;86.93;;
19705;SDS011;10003;52.506;4.700;2022-11-15T02:49:40;208.97;;;63.30;;
19705;SDS011;10003;52.506;4.700;2022-11-15T02:52:13;271.93;;;83.13;;
19705;SDS011;10003;52.506;4.700;2022-11-15T02:54:42;123.10;;;36.73;;
19705;SDS011;10003;52.506;4.700;2022-11-15T02:57:12;186.57;;;55.00;;
19705;SDS011;10003;52.506;4.700;2022-11-15T02:59:56;117.80;;;40.37;;
19705;SDS011;10003;52.506;4.700;2022-11-15T03:02:41;201.10;;;64.10;;
19705;SDS011;10003;52.506;4.700;2022-11-15T03:05:14;189.10;;;56.93;;
19705;SDS011;10003;52.506;4.700;2022-11-15T03:07:44;211.77;;;60.20;;
19705;SDS011;10003;52.506;4.700;2022-11-15T03:10:17;237.87;;;69.10;;
19705;SDS011;10003;52.506;4.700;2022-11-15T03:12:48;143.93;;;44.07;;
19705;SDS011;10003;52.506;4.700;2022-11-15T03:15:21;284.77;;;75.70;;
19705;SDS011;10003;52.506;4.700;2022-11-15T03:17:52;264.00;;;74.93;;
19705;SDS011;10003;52.506;4.700;2022-11-15T03:20:21;344.57;;;92.43;;
19705;SDS011;10003;52.506;4.700;2022-11-15T03:22:49;307.17;;;76.60;;
19705;SDS011;10003;52.506;4.700;2022-11-15T03:25:19;404.80;;;101.93;;
19705;SDS011;10003;52.506;4.700;2022-11-15T03:27:50;388.27;;;92.90;;
19705;SDS011;10003;52.506;4.700;2022-11-15T03:30:19;410.23;;;103.50;;
19705;SDS011;10003;52.506;4.700;2022-11-15T03:32:49;377.90;;;89.73;;
19705;SDS011;10003;52.506;4.700;2022-11-15T03:35:21;443.33;;;107.87;;
19705;SDS011;10003;52.506;4.700;2022-11-15T03:37:51;425.13;;;96.37;;
19705;SDS011;10003;52.506;4.700;2022-11-15T03:40:22;390.83;;;94.33;;
19705;SDS011;10003;52.506;4.700;2022-11-15T03:42:54;420.17;;;98.23;;
19705;SDS011;10003;52.506;4.700;2022-11-15T03:45:27;311.97;;;78.93;;
19705;SDS011;10003;52.506;4.700;2022-11-15T03:47:58;313.67;;;73.47;;
19705;SDS011;10003;52.506;4.700;2022-11-15T03:50:29;292.37;;;74.70;;
19705;SDS011;10003;52.506;4.700;2022-11-15T03:52:57;239.40;;;62.07;;
19705;SDS011;10003;52.506;4.700;2022-11-15T03:55:26;349.30;;;88.23;;
19705;SDS011;10003;52.506;4.700;2022-11-15T03:57:56;327.00;;;81.13;;
19705;SDS011;10003;52.506;4.700;2022-11-15T04:00:25;358.27;;;86.37;;
19705;SDS011;10003;52.506;4.700;2022-11-15T04:02:54;367.00;;;95.67;;
19705;SDS011;10003;52.506;4.700;2022-11-15T04:05:22;328.90;;;83.03;;
19705;SDS011;10003;52.506;4.700;2022-11-15T04:07:52;162.67;;;54.30;;
19705;SDS011;10003;52.506;4.700;2022-11-15T04:10:21;331.63;;;97.00;;
19705;SDS011;10003;52.506;4.700;2022-11-15T04:12:49;359.57;;;98.93;;
19705;SDS011;10003;52.506;4.700;2022-11-15T04:15:19;387.47;;;112.67;;
19705;SDS011;10003;52.506;4.700;2022-11-15T04:17:48;370.40;;;102.43;;
19705;SDS011;10003;52.506;4.700;2022-11-15T04:20:17;325.10;;;87.80;;
19705;SDS011;10003;52.506;4.700;2022-11-15T04:23:06;383.97;;;112.37;;
19705;SDS011;10003;52.506;4.700;2022-11-15T04:25:52;316.63;;;88.03;;
19705;SDS011;10003;52.506;4.700;2022-11-15T04:28:21;329.07;;;100.80;;
19705;SDS011;10003;52.506;4.700;2022-11-15T04:30:50;347.27;;;110.40;;
19705;SDS011;10003;52.506;4.700;2022-11-15T04:33:18;264.30;;;63.50;;
19705;SDS011;10003;52.506;4.700;2022-11-15T04:35:47;148.80;;;41.80;;
19705;SDS011;10003;52.506;4.700;2022-11-15T04:38:30;260.90;;;80.97;;
19705;SDS011;10003;52.506;4.700;2022-11-15T04:40:59;222.47;;;75.87;;
19705;SDS011;10003;52.506;4.700;2022-11-15T04:43:27;245.67;;;97.53;;
19705;SDS011;10003;52.506;4.700;2022-11-15T04:45:56;279.63;;;93.80;;
19705;SDS011;10003;52.506;4.700;2022-11-15T04:48:24;243.60;;;85.37;;
19705;SDS011;10003;52.506;4.700;2022-11-15T04:50:53;148.77;;;45.87;;
19705;SDS011;10003;52.506;4.700;2022-11-15T04:53:21;263.57;;;84.77;;
19705;SDS011;10003;52.506;4.700;2022-11-15T04:55:51;246.73;;;94.87;;
19705;SDS011;10003;52.506;4.700;2022-11-15T04:58:19;230.53;;;99.87;;
19705;SDS011;10003;52.506;4.700;2022-11-15T05:00:47;200.47;;;79.77;;
19705;SDS011;10003;52.506;4.700;2022-11-15T05:03:16;186.13;;;75.40;;
19705;SDS011;10003;52.506;4.700;2022-11-15T05:06:02;203.70;;;90.83;;
19705;SDS011;10003;52.506;4.700;2022-11-15T05:08:31;192.47;;;88.83;;
19705;SDS011;10003;52.506;4.700;2022-11-15T05:11:00;149.33;;;56.13;;
19705;SDS011;10003;52.506;4.700;2022-11-15T05:13:29;190.60;;;70.13;;
19705;SDS011;10003;52.506;4.700;2022-11-15T05:15:57;159.80;;;59.37;;
19705;SDS011;10003;52.506;4.700;2022-11-15T05:18:26;175.83;;;70.37;;
19705;SDS011;10003;52.506;4.700;2022-11-15T05:20:54;160.33;;;69.00;;
19705;SDS011;10003;52.506;4.700;2022-11-15T05:23:23;157.67;;;69.33;;
19705;SDS011;10003;52.506;4.700;2022-11-15T05:25:51;114.43;;;52.70;;
19705;SDS011;10003;52.506;4.700;2022-11-15T05:28:21;124.50;;;60.47;;
19705;SDS011;10003;52.506;4.700;2022-11-15T05:30:49;118.20;;;53.97;;
19705;SDS011;10003;52.506;4.700;2022-11-15T05:33:17;116.20;;;61.23;;
19705;SDS011;10003;52.506;4.700;2022-11-15T05:35:48;108.20;;;48.63;;
19705;SDS011;10003;52.506;4.700;2022-11-15T05:38:18;127.47;;;52.97;;
19705;SDS011;10003;52.506;4.700;2022-11-15T05:40:47;72.60;;;35.67;;
19705;SDS011;10003;52.506;4.700;2022-11-15T05:43:15;106.63;;;56.80;;
19705;SDS011;10003;52.506;4.700;2022-11-15T05:45:45;90.40;;;44.27;;
19705;SDS011;10003;52.506;4.700;2022-11-15T05:48:13;113.73;;;56.40;;
19705;SDS011;10003;52.506;4.700;2022-11-15T05:50:43;89.47;;;51.00;;
19705;SDS011;10003;52.506;4.700;2022-11-15T05:53:14;76.63;;;43.67;;
19705;SDS011;10003;52.506;4.700;2022-11-15T05:55:43;69.40;;;44.87;;
19705;SDS011;10003;52.506;4.700;2022-11-15T05:58:11;88.83;;;54.57;;
19705;SDS011;10003;52.506;4.700;2022-11-15T06:00:40;81.23;;;47.60;;
19705;SDS011;10003;52.506;4.700;2022-11-15T06:03:10;77.67;;;48.43;;
19705;SDS011;10003;52.506;4.700;2022-11-15T06:05:40;71.20;;;43.57;;
19705;SDS011;10003;52.506;4.700;2022-11-15T06:08:08;63.60;;;37.97;;
19705;SDS011;10003;52.506;4.700;2022-11-15T06:10:37;76.83;;;48.97;;
19705;SDS011;10003;52.506;4.700;2022-11-15T06:13:05;67.70;;;38.83;;
19705;SDS011;10003;52.506;4.700;2022-11-15T06:15:34;64.50;;;42.23;;
19705;SDS011;10003;52.506;4.700;2022-11-15T06:18:02;66.17;;;41.40;;
19705;SDS011;10003;52.506;4.700;2022-11-15T06:20:32;57.93;;;37.60;;
19705;SDS011;10003;52.506;4.700;2022-11-15T06:23:01;58.07;;;37.57;;
19705;SDS011;10003;52.506;4.700;2022-11-15T06:25:30;55.80;;;37.50;;
19705;SDS011;10003;52.506;4.700;2022-11-15T06:27:59;55.83;;;38.50;;
19705;SDS011;10003;52.506;4.700;2022-11-15T06:30:27;56.17;;;38.67;;
19705;SDS011;10003;52.506;4.700;2022-11-15T06:32:59;47.93;;;28.57;;
19705;SDS011;10003;52.506;4.700;2022-11-15T06:35:28;49.50;;;29.17;;
19705;SDS011;10003;52.506;4.700;2022-11-15T06:38:02;55.50;;;33.47;;
19705;SDS011;10003;52.506;4.700;2022-11-15T06:40:32;51.03;;;29.40;;
19705;SDS011;10003;52.506;4.700;2022-11-15T06:43:01;54.17;;;35.60;;
19705;SDS011;10003;52.506;4.700;2022-11-15T06:45:30;44.80;;;28.23;;
19705;SDS011;10003;52.506;4.700;2022-11-15T06:47:58;50.83;;;36.57;;
19705;SDS011;10003;52.506;4.700;2022-11-15T06:50:27;42.40;;;27.37;;
19705;SDS011;10003;52.506;4.700;2022-11-15T06:52:59;27.20;;;15.90;;
19705;SDS011;10003;52.506;4.700;2022-11-15T06:55:29;44.97;;;34.60;;
19705;SDS011;10003;52.506;4.700;2022-11-15T06:57:58;39.77;;;28.67;;
19705;SDS011;10003;52.506;4.700;2022-11-15T07:00:26;36.33;;;22.57;;
19705;SDS011;10003;52.506;4.700;2022-11-15T07:02:55;40.73;;;30.50;;
19705;SDS011;10003;52.506;4.700;2022-11-15T07:05:23;38.63;;;26.63;;
19705;SDS011;10003;52.506;4.700;2022-11-15T07:07:52;39.83;;;26.67;;
19705;SDS011;10003;52.506;4.700;2022-11-15T07:10:21;38.20;;;24.07;;
19705;SDS011;10003;52.506;4.700;2022-11-15T07:12:52;38.77;;;23.77;;
19705;SDS011;10003;52.506;4.700;2022-11-15T07:15:21;40.17;;;25.50;;
19705;SDS011;10003;52.506;4.700;2022-11-15T07:17:50;35.87;;;28.43;;
19705;SDS011;10003;52.506;4.700;2022-11-15T07:20:18;33.40;;;23.30;;
19705;SDS011;10003;52.506;4.700;2022-11-15T07:22:46;27.00;;;17.30;;
19705;SDS011;10003;52.506;4.700;2022-11-15T07:25:15;29.10;;;18.83;;
19705;SDS011;10003;52.506;4.700;2022-11-15T07:27:43;33.43;;;21.00;;
19705;SDS011;10003;52.506;4.700;2022-11-15T07:30:14;50.33;;;34.40;;
19705;SDS011;10003;52.506;4.700;2022-11-15T07:32:42;44.43;;;28.40;;
19705;SDS011;10003;52.506;4.700;2022-11-15T07:35:11;50.20;;;32.13;;
19705;SDS011;10003;52.506;4.700;2022-11-15T07:37:41;29.80;;;20.17;;
19705;SDS011;10003;52.506;4.700;2022-11-15T07:40:15;42.17;;;30.00;;
19705;SDS011;10003;52.506;4.700;2022-11-15T07:42:50;40.63;;;31.73;;
19705;SDS011;10003;52.506;4.700;2022-11-15T07:45:24;37.77;;;26.47;;
19705;SDS011;10003;52.506;4.700;2022-11-15T07:47:53;34.10;;;24.07;;
19705;SDS011;10003;52.506;4.700;2022-11-15T07:50:34;33.57;;;24.97;;
19705;SDS011;10003;52.506;4.700;2022-11-15T07:53:03;30.20;;;22.13;;
19705;SDS011;10003;52.506;4.700;2022-11-15T07:55:36;31.47;;;22.40;;
19705;SDS011;10003;52.506;4.700;2022-11-15T07:58:09;28.37;;;19.70;;
19705;SDS011;10003;52.506;4.700;2022-11-15T08:00:56;29.47;;;19.40;;
19705;SDS011;10003;52.506;4.700;2022-11-15T08:03:25;30.10;;;22.77;;
19705;SDS011;10003;52.506;4.700;2022-11-15T08:06:03;24.73;;;17.00;;
19705;SDS011;10003;52.506;4.700;2022-11-15T08:08:40;20.97;;;15.60;;
19705;SDS011;10003;52.506;4.700;2022-11-15T08:11:24;20.70;;;15.87;;
19705;SDS011;10003;52.506;4.700;2022-11-15T08:14:01;21.40;;;14.23;;
19705;SDS011;10003;52.506;4.700;2022-11-15T08:16:40;23.07;;;15.37;;
19705;SDS011;10003;52.506;4.700;2022-11-15T08:19:15;17.60;;;11.90;;
19705;SDS011;10003;52.506;4.700;2022-11-15T08:21:47;20.80;;;11.83;;
19705;SDS011;10003;52.506;4.700;2022-11-15T08:24:18;15.17;;;9.97;;
19705;SDS011;10003;52.506;4.700;2022-11-15T08:26:47;19.27;;;12.33;;
19705;SDS011;10003;52.506;4.700;2022-11-15T08:29:22;12.87;;;10.20;;
19705;SDS011;10003;52.506;4.700;2022-11-15T08:31:53;20.50;;;11.63;;
19705;SDS011;10003;52.506;4.700;2022-11-15T08:34:24;16.73;;;10.47;;
19705;SDS011;10003;52.506;4.700;2022-11-15T08:36:55;14.10;;;9.10;;
19705;SDS011;10003;52.506;4.700;2022-11-15T08:39:24;14.83;;;8.80;;
19705;SDS011;10003;52.506;4.700;2022-11-15T08:41:53;14.67;;;11.77;;
19705;SDS011;10003;52.506;4.700;2022-11-15T08:44:28;12.70;;;8.67;;
19705;SDS011;10003;52.506;4.700;2022-11-15T08:47:01;10.67;;;6.70;;
19705;SDS011;10003;52.506;4.700;2022-11-15T08:49:41;14.57;;;9.90;;
19705;SDS011;10003;52.506;4.700;2022-11-15T08:52:13;21.63;;;7.50;;
19705;SDS011;10003;52.506;4.700;2022-11-15T08:54:51;14.43;;;12.73;;
19705;SDS011;10003;52.506;4.700;2022-11-15T08:57:20;20.70;;;10.97;;
19705;SDS011;10003;52.506;4.700;2022-11-15T08:59:50;18.03;;;12.00;;
19705;SDS011;10003;52.506;4.700;2022-11-15T09:02:21;19.30;;;10.87;;
19705;SDS011;10003;52.506;4.700;2022-11-15T09:04:50;10.67;;;9.00;;
19705;SDS011;10003;52.506;4.700;2022-11-15T09:07:26;12.17;;;9.67;;
19705;SDS011;10003;52.506;4.700;2022-11-15T09:10:00;15.47;;;10.80;;
19705;SDS011;10003;52.506;4.700;2022-11-15T09:12:28;13.87;;;9.97;;
19705;SDS011;10003;52.506;4.700;2022-11-15T09:14:57;12.27;;;9.80;;
19705;SDS011;10003;52.506;4.700;2022-11-15T09:17:30;13.13;;;11.63;;
19705;SDS011;10003;52.506;4.700;2022-11-15T09:19:59;13.90;;;9.53;;
19705;SDS011;10003;52.506;4.700;2022-11-15T09:22:28;15.37;;;9.43;;
19705;SDS011;10003;52.506;4.700;2022-11-15T09:24:57;13.50;;;10.97;;
19705;SDS011;10003;52.506;4.700;2022-11-15T09:27:29;13.27;;;10.07;;
19705;SDS011;10003;52.506;4.700;2022-11-15T09:30:24;12.60;;;10.67;;
19705;SDS011;10003;52.506;4.700;2022-11-15T09:35:49;12.23;;;10.60;;
19705;SDS011;10003;52.506;4.700;2022-11-15T09:38:42;12.03;;;10.50;;
19705;SDS011;10003;52.506;4.700;2022-11-15T09:44:29;13.80;;;8.10;;
19705;SDS011;10003;52.506;4.700;2022-11-15T09:47:26;12.83;;;11.03;;
19705;SDS011;10003;52.506;4.700;2022-11-15T09:50:26;15.47;;;11.20;;
19705;SDS011;10003;52.506;4.700;2022-11-15T09:53:03;11.13;;;9.13;;
19705;SDS011;10003;52.506;4.700;2022-11-15T09:55:41;10.87;;;9.43;;
19705;SDS011;10003;52.506;4.700;2022-11-15T09:58:16;13.27;;;10.10;;
19705;SDS011;10003;52.506;4.700;2022-11-15T10:00:47;10.57;;;7.87;;
19705;SDS011;10003;52.506;4.700;2022-11-15T10:03:25;5.73;;;4.90;;
19705;SDS011;10003;52.506;4.700;2022-11-15T10:05:59;11.80;;;8.70;;
19705;SDS011;10003;52.506;4.700;2022-11-15T10:08:47;12.43;;;9.47;;
19705;SDS011;10003;52.506;4.700;2022-11-15T10:11:22;10.20;;;7.00;;
19705;SDS011;10003;52.506;4.700;2022-11-15T10:14:09;9.43;;;7.70;;
19705;SDS011;10003;52.506;4.700;2022-11-15T10:19:31;10.30;;;9.23;;
19705;SDS011;10003;52.506;4.700;2022-11-15T10:22:14;9.23;;;7.70;;
19705;SDS011;10003;52.506;4.700;2022-11-15T10:25:31;7.10;;;4.93;;
19705;SDS011;10003;52.506;4.700;2022-11-15T10:28:11;8.57;;;7.77;;
19705;SDS011;10003;52.506;4.700;2022-11-15T10:30:44;7.00;;;5.53;;
19705;SDS011;10003;52.506;4.700;2022-11-15T10:33:33;8.87;;;6.97;;
19705;SDS011;10003;52.506;4.700;2022-11-15T10:38:59;8.90;;;7.40;;
19705;SDS011;10003;52.506;4.700;2022-11-15T10:41:34;9.73;;;8.73;;
19705;SDS011;10003;52.506;4.700;2022-11-15T10:44:20;9.23;;;7.70;;
19705;SDS011;10003;52.506;4.700;2022-11-15T10:47:04;12.77;;;8.80;;
19705;SDS011;10003;52.506;4.700;2022-11-15T10:49:34;9.17;;;8.20;;
19705;SDS011;10003;52.506;4.700;2022-11-15T10:52:04;8.53;;;7.70;;
19705;SDS011;10003;52.506;4.700;2022-11-15T10:54:44;9.27;;;7.67;;
19705;SDS011;10003;52.506;4.700;2022-11-15T10:57:20;11.53;;;7.67;;
19705;SDS011;10003;52.506;4.700;2022-11-15T10:59:52;10.47;;;7.03;;
19705;SDS011;10003;52.506;4.700;2022-11-15T11:02:31;8.73;;;7.83;;
19705;SDS011;10003;52.506;4.700;2022-11-15T11:05:03;8.87;;;6.27;;
19705;SDS011;10003;52.506;4.700;2022-11-15T11:07:32;8.03;;;5.00;;
19705;SDS011;10003;52.506;4.700;2022-11-15T11:10:04;7.60;;;5.80;;
19705;SDS011;10003;52.506;4.700;2022-11-15T11:12:55;9.00;;;7.10;;
19705;SDS011;10003;52.506;4.700;2022-11-15T11:15:25;8.17;;;6.17;;
19705;SDS011;10003;52.506;4.700;2022-11-15T11:17:59;9.53;;;6.20;;
19705;SDS011;10003;52.506;4.700;2022-11-15T11:20:33;7.23;;;5.67;;
19705;SDS011;10003;52.506;4.700;2022-11-15T11:23:14;9.30;;;4.63;;
19705;SDS011;10003;52.506;4.700;2022-11-15T11:26:01;7.30;;;5.50;;
19705;SDS011;10003;52.506;4.700;2022-11-15T11:29:38;8.73;;;6.10;;
19705;SDS011;10003;52.506;4.700;2022-11-15T11:32:19;10.00;;;6.43;;
19705;SDS011;10003;52.506;4.700;2022-11-15T11:34:54;6.93;;;5.83;;
19705;SDS011;10003;52.506;4.700;2022-11-15T11:37:28;11.67;;;6.13;;
19705;SDS011;10003;52.506;4.700;2022-11-15T11:40:18;9.07;;;5.60;;
19705;SDS011;10003;52.506;4.700;2022-11-15T11:43:10;8.73;;;5.40;;
19705;SDS011;10003;52.506;4.700;2022-11-15T11:45:47;6.73;;;4.60;;
19705;SDS011;10003;52.506;4.700;2022-11-15T11:48:40;5.17;;;4.07;;
19705;SDS011;10003;52.506;4.700;2022-11-15T11:51:13;7.60;;;4.33;;
19705;SDS011;10003;52.506;4.700;2022-11-15T11:53:45;7.33;;;3.97;;
19705;SDS011;10003;52.506;4.700;2022-11-15T11:56:18;7.70;;;3.57;;
19705;SDS011;10003;52.506;4.700;2022-11-15T11:58:48;8.13;;;3.83;;
19705;SDS011;10003;52.506;4.700;2022-11-15T12:30:33;7.23;;;3.47;;
19705;SDS011;10003;52.506;4.700;2022-11-15T12:33:54;6.87;;;3.27;;
19705;SDS011;10003;52.506;4.700;2022-11-15T12:36:35;6.37;;;3.57;;
19705;SDS011;10003;52.506;4.700;2022-11-15T12:39:13;6.40;;;3.60;;
19705;SDS011;10003;52.506;4.700;2022-11-15T12:45:00;6.10;;;3.50;;
19705;SDS011;10003;52.506;4.700;2022-11-15T12:47:45;4.23;;;3.00;;
19705;SDS011;10003;52.506;4.700;2022-11-15T12:50:13;3.87;;;2.90;;
19705;SDS011;10003;52.506;4.700;2022-11-15T12:55:33;4.30;;;2.77;;
19705;SDS011;10003;52.506;4.700;2022-11-15T13:00:58;5.37;;;2.63;;
19705;SDS011;10003;52.506;4.700;2022-11-15T13:03:35;3.37;;;2.13;;
19705;SDS011;10003;52.506;4.700;2022-11-15T13:06:05;2.00;;;1.63;;
19705;SDS011;10003;52.506;4.700;2022-11-15T13:08:35;3.77;;;2.70;;
19705;SDS011;10003;52.506;4.700;2022-11-15T13:13:49;6.40;;;2.53;;
19705;SDS011;10003;52.506;4.700;2022-11-15T13:16:18;4.50;;;2.30;;
19705;SDS011;10003;52.506;4.700;2022-11-15T13:18:54;1.93;;;1.23;;
19705;SDS011;10003;52.506;4.700;2022-11-15T13:21:23;1.13;;;1.07;;
19705;SDS011;10003;52.506;4.700;2022-11-15T13:24:21;5.27;;;1.60;;
19705;SDS011;10003;52.506;4.700;2022-11-15T13:26:51;4.13;;;1.03;;
19705;SDS011;10003;52.506;4.700;2022-11-15T13:29:34;2.73;;;1.47;;
19705;SDS011;10003;52.506;4.700;2022-11-15T13:32:03;0.50;;;0.50;;
19705;SDS011;10003;52.506;4.700;2022-11-15T13:34:37;2.53;;;1.50;;
19705;SDS011;10003;52.506;4.700;2022-11-15T13:37:29;4.33;;;1.90;;
19705;SDS011;10003;52.506;4.700;2022-11-15T13:41:45;3.90;;;1.60;;
19705;SDS011;10003;52.506;4.700;2022-11-15T13:43:55;2.07;;;1.40;;
19705;SDS011;10003;52.506;4.700;2022-11-15T13:47:07;4.57;;;1.43;;
19705;SDS011;10003;52.506;4.700;2022-11-15T13:57:42;6.90;;;4.50;;
19705;SDS011;10003;52.506;4.700;2022-11-15T14:00:35;2.20;;;1.57;;
19705;SDS011;10003;52.506;4.700;2022-11-15T14:03:22;2.07;;;1.57;;
19705;SDS011;10003;52.506;4.700;2022-11-15T14:06:13;1.93;;;1.43;;
19705;SDS011;10003;52.506;4.700;2022-11-15T14:11:49;4.37;;;3.03;;
19705;SDS011;10003;52.506;4.700;2022-11-15T14:14:21;5.80;;;2.23;;
19705;SDS011;10003;52.506;4.700;2022-11-15T14:17:38;4.13;;;1.97;;
19705;SDS011;10003;52.506;4.700;2022-11-15T14:21:11;5.93;;;1.77;;
19705;SDS011;10003;52.506;4.700;2022-11-15T14:23:49;5.97;;;2.53;;
19705;SDS011;10003;52.506;4.700;2022-11-15T14:26:40;3.67;;;1.13;;
19705;SDS011;10003;52.506;4.700;2022-11-15T14:29:42;3.93;;;1.33;;
19705;SDS011;10003;52.506;4.700;2022-11-15T14:32:22;3.10;;;1.57;;
19705;SDS011;10003;52.506;4.700;2022-11-15T14:34:53;1.93;;;1.53;;
19705;SDS011;10003;52.506;4.700;2022-11-15T14:37:28;5.20;;;1.40;;
19705;SDS011;10003;52.506;4.700;2022-11-15T14:40:02;2.17;;;1.43;;
19705;SDS011;10003;52.506;4.700;2022-11-15T14:42:46;3.60;;;2.00;;
19705;SDS011;10003;52.506;4.700;2022-11-15T14:45:26;0.80;;;0.80;;
19705;SDS011;10003;52.506;4.700;2022-11-15T14:48:06;0.90;;;0.90;;
19705;SDS011;10003;52.506;4.700;2022-11-15T14:50:55;2.23;;;1.17;;
19705;SDS011;10003;52.506;4.700;2022-11-15T14:55:56;1.03;;;0.90;;
19705;SDS011;10003;52.506;4.700;2022-11-15T15:01:13;0.83;;;0.83;;
19705;SDS011;10003;52.506;4.700;2022-11-15T15:03:58;4.90;;;1.33;;
19705;SDS011;10003;52.506;4.700;2022-11-15T15:06:41;0.50;;;0.50;;
19705;SDS011;10003;52.506;4.700;2022-11-15T15:09:21;2.63;;;1.40;;
19705;SDS011;10003;52.506;4.700;2022-11-15T15:12:13;2.47;;;1.23;;
19705;SDS011;10003;52.506;4.700;2022-11-15T15:14:49;1.83;;;1.33;;
19705;SDS011;10003;52.506;4.700;2022-11-15T15:24:45;2.13;;;1.57;;
19705;SDS011;10003;52.506;4.700;2022-11-15T16:03:21;4.17;;;2.00;;
19705;SDS011;10003;52.506;4.700;2022-11-15T16:05:50;5.00;;;2.00;;
19705;SDS011;10003;52.506;4.700;2022-11-15T16:08:19;4.43;;;2.10;;
19705;SDS011;10003;52.506;4.700;2022-11-15T16:10:54;2.30;;;1.73;;
19705;SDS011;10003;52.506;4.700;2022-11-15T16:13:25;5.13;;;2.20;;
19705;SDS011;10003;52.506;4.700;2022-11-15T16:15:53;3.63;;;2.60;;
19705;SDS011;10003;52.506;4.700;2022-11-15T16:18:24;5.60;;;1.77;;
19705;SDS011;10003;52.506;4.700;2022-11-15T16:20:52;2.60;;;1.50;;
19705;SDS011;10003;52.506;4.700;2022-11-15T16:23:23;2.83;;;1.53;;
19705;SDS011;10003;52.506;4.700;2022-11-15T16:25:52;1.00;;;0.93;;
19705;SDS011;10003;52.506;4.700;2022-11-15T16:28:22;1.97;;;1.70;;
19705;SDS011;10003;52.506;4.700;2022-11-15T16:30:58;5.07;;;2.53;;
19705;SDS011;10003;52.506;4.700;2022-11-15T16:33:28;2.03;;;1.70;;
19705;SDS011;10003;52.506;4.700;2022-11-15T16:35:57;1.70;;;1.60;;
19705;SDS011;10003;52.506;4.700;2022-11-15T16:38:26;3.20;;;1.30;;
19705;SDS011;10003;52.506;4.700;2022-11-15T16:40:54;2.30;;;1.27;;
19705;SDS011;10003;52.506;4.700;2022-11-15T16:43:23;1.80;;;1.57;;
19705;SDS011;10003;52.506;4.700;2022-11-15T16:45:51;1.90;;;1.60;;
19705;SDS011;10003;52.506;4.700;2022-11-15T16:48:21;2.20;;;1.60;;
19705;SDS011;10003;52.506;4.700;2022-11-15T16:50:52;2.13;;;1.90;;
19705;SDS011;10003;52.506;4.700;2022-11-15T16:53:23;1.50;;;1.30;;
19705;SDS011;10003;52.506;4.700;2022-11-15T16:55:53;1.20;;;1.03;;
19705;SDS011;10003;52.506;4.700;2022-11-15T16:58:22;3.77;;;1.63;;
19705;SDS011;10003;52.506;4.700;2022-11-15T17:00:50;2.57;;;1.77;;
19705;SDS011;10003;52.506;4.700;2022-11-15T17:03:20;2.97;;;2.10;;